Bei Facebook empfehlenBei Twitter postenGoogle plusPinterest

Das Wetter im Erzgebirge am 03.10.2016

Wetter und Klima am 03.10.2016 Holzhau im Erzgebirge (630m ü.NN)
Letzte gemessene Temperatur und Uhrzeit der Messung23:45:00 Uhr8.20 °C
Temperatur (Maximum / Höchstwert) und Uhrzeit der Messung14:00:00 Uhr11.30 °C
Temperatur (Minimum / Tiefstwert) und Uhrzeit der Messung05:30:002.00 °C
Errechneter Absolutwert der Temperaturschwankungen zwischen Tmin und Tmax des Tages9.30 K
Errechnete Tagesmitteltemperatur7.07708 °C
Gesamt - Niederschlag des Tages (in flüssiger Form)3.11 Liter / m²
Luftdruck (Maximum / Höchstwert) und Zeitpunkt der Messung22:15:00 Uhr1020.60 hPa
Luftdruck (Minimum / Tiefstwert) und Zeitpunkt der Messung00:30:00 Uhr1013.40 hPa
Errechneter Absolutwert der Luftdruckschwankungen des Tages7.20 hPa
Höchste gemessene Windgeschwindigkeit und Uhrzeit der Messung23:45:00 Uhr0.00 km/h
Errechnete Windhäufigkeit in Relation zu den Messwerten des Tages0.00000 %
Niedrigste Windkühle (Windchill) und Zeitpunkt der Messung05:30:00 Uhr2.00 °C
Taupunkt (Maximum / Höchstwert) und Uhrzeit der Messung14:00:00 Uhr10.40 °C
Taupunkt (Minimum / Tiefstwert) und Uhrzeit der Messung05:30:001.00 °C
Anzahl der automatisch eingelesenen Messwerte 96

Detaillierte Wetter- und Klima- Messwerte für den 03.10.2016 in Holzhau im Erzgebirge (630m ü.NN)
ZeitTemperaturLuftdruckRel. LuftfeuchteWindWindrichtungWindchillTaupunktNiederschlag l/m²
23:45:008.20 °C1020.50 hPa95.00 %7.40 °C3.11
23:30:008.20 °C1020.50 hPa94.00 %7.30 °C3.11
23:15:008.30 °C1020.50 hPa94.00 %7.40 °C3.11
23:00:008.40 °C1020.40 hPa94.00 %7.50 °C3.11
22:45:008.50 °C1020.40 hPa94.00 %7.60 °C2.59
22:30:008.50 °C1020.20 hPa94.00 %7.60 °C2.59
22:15:008.50 °C1020.60 hPa94.00 %7.60 °C2.59
22:00:008.50 °C1020.50 hPa94.00 %7.60 °C2.59
21:45:008.60 °C1020.40 hPa94.00 %7.70 °C2.59
21:30:008.60 °C1020.30 hPa94.00 %7.70 °C2.59
21:15:008.50 °C1020.30 hPa94.00 %7.60 °C2.59
21:00:008.40 °C1020.10 hPa94.00 %7.50 °C2.59
20:45:008.40 °C1020.00 hPa94.00 %7.50 °C2.59
20:30:008.40 °C1019.90 hPa94.00 %7.50 °C2.59
20:15:008.40 °C1019.50 hPa94.00 %7.50 °C2.59
20:00:008.40 °C1019.30 hPa93.00 %7.30 °C2.59
19:45:008.40 °C1019.00 hPa93.00 %7.30 °C2.59
19:30:008.40 °C1018.80 hPa93.00 %7.30 °C2.59
19:15:008.40 °C1018.70 hPa93.00 %7.30 °C2.07
19:00:008.40 °C1018.60 hPa93.00 %7.30 °C1.56
18:45:008.50 °C1018.50 hPa93.00 %7.40 °C1.56
18:30:008.50 °C1018.30 hPa93.00 %7.40 °C1.56
18:15:008.40 °C1018.30 hPa93.00 %7.30 °C1.56
18:00:008.40 °C1018.00 hPa92.00 %7.20 °C1.56
17:45:008.40 °C1018.00 hPa92.00 %7.20 °C1.56
17:30:008.50 °C1017.90 hPa92.00 %7.30 °C1.56
17:15:008.60 °C1018.10 hPa91.00 %7.20 °C1.56
17:00:008.90 °C1017.90 hPa91.00 %7.50 °C1.56
16:45:009.00 °C1017.80 hPa92.00 %7.80 °C1.56
16:30:009.00 °C1017.90 hPa91.00 %7.60 °C1.56
16:15:009.20 °C1017.60 hPa91.00 %7.80 °C1.56
16:00:009.40 °C1017.70 hPa90.00 %7.80 °C1.56
15:45:0010.10 °C1017.60 hPa90.00 %8.50 °C1.56
15:30:0010.60 °C1017.50 hPa91.00 %9.20 °C1.56
15:15:0010.10 °C1017.40 hPa90.00 %8.50 °C1.56
15:00:0010.30 °C1017.40 hPa91.00 %8.90 °C1.56
14:45:0010.90 °C1017.10 hPa91.00 %9.50 °C1.56
14:30:0010.90 °C1017.00 hPa93.00 %9.80 °C1.56
14:15:0010.90 °C1017.00 hPa93.00 %9.80 °C1.56
14:00:0011.30 °C1016.90 hPa94.00 %10.40 °C1.56
13:45:0011.10 °C1016.80 hPa94.00 %10.20 °C1.56
13:30:0010.80 °C1016.80 hPa95.00 %10.00 °C1.56
13:15:0010.60 °C1016.70 hPa95.00 %9.80 °C1.56
13:00:0010.10 °C1016.70 hPa95.00 %9.30 °C1.56
12:45:009.60 °C1016.50 hPa95.00 %8.80 °C1.56
12:30:009.80 °C1016.50 hPa95.00 %9.00 °C1.56
12:15:009.80 °C1016.20 hPa95.00 %9.00 °C1.56
12:00:009.80 °C1016.00 hPa95.00 %9.00 °C1.56
11:45:009.50 °C1016.20 hPa95.00 %8.70 °C1.56
11:30:009.30 °C1016.00 hPa95.00 %8.50 °C1.56
11:15:009.50 °C1015.90 hPa95.00 %8.70 °C1.04
11:00:009.60 °C1015.70 hPa95.00 %8.80 °C1.04
10:45:009.80 °C1015.70 hPa95.00 %9.00 °C0.52
10:30:009.20 °C1015.70 hPa95.00 %8.40 °C0.52
10:15:008.80 °C1015.60 hPa95.00 %8.00 °C0.52
10:00:008.50 °C1015.30 hPa95.00 %7.70 °C0.52
09:45:008.30 °C1015.30 hPa95.00 %7.50 °C0.52
09:30:007.90 °C1015.40 hPa95.00 %7.10 °C0.52
09:15:007.30 °C1015.30 hPa95.00 %6.60 °C0.52
09:00:006.80 °C1015.20 hPa95.00 %6.10 °C0.52
08:45:006.30 °C1015.20 hPa95.00 %5.60 °C0.52
08:30:005.90 °C1014.90 hPa95.00 %5.20 °C0.52
08:15:005.50 °C1015.00 hPa95.00 %4.80 °C0.52
08:00:005.10 °C1014.90 hPa94.00 %4.20 °C0.52
07:45:004.90 °C1014.80 hPa94.00 %4.00 °C0.52
07:30:004.60 °C1014.60 hPa94.00 %3.70 °C0.52
07:15:004.40 °C1014.60 hPa94.00 %3.50 °C0.52
07:00:004.40 °C1014.50 hPa94.00 %3.50 °C0.52
06:45:004.20 °C1014.50 hPa94.00 %3.30 °C0.52
06:30:003.90 °C1014.40 hPa94.00 %3.00 °C0.52
06:15:003.50 °C1014.40 hPa94.00 %2.60 °C0.52
06:00:002.90 °C1014.70 hPa94.00 %2.00 °C0.52
05:45:002.10 °C1014.30 hPa93.00 %1.10 °C0.52
05:30:002.00 °C1014.20 hPa93.00 %1.00 °C0.52
05:15:002.30 °C1014.10 hPa93.00 %1.30 °C0.52
05:00:002.50 °C1014.00 hPa93.00 %1.50 °C0.52
04:45:002.50 °C1014.10 hPa93.00 %1.50 °C0.52
04:30:002.40 °C1013.80 hPa93.00 %1.40 °C0.52
04:15:002.40 °C1013.80 hPa93.00 %1.40 °C0.52
04:00:002.60 °C1013.50 hPa93.00 %1.60 °C0.52
03:45:002.70 °C1013.90 hPa93.00 %1.70 °C0.52
03:30:003.10 °C1013.90 hPa93.00 %2.10 °C0.52
03:15:003.10 °C1014.00 hPa93.00 %2.10 °C 
03:00:003.10 °C1013.80 hPa93.00 %2.10 °C 
02:45:003.10 °C1013.90 hPa93.00 %2.10 °C 
02:30:003.30 °C1013.90 hPa93.00 %2.30 °C 
02:15:003.30 °C1014.00 hPa92.00 %2.10 °C 
02:00:003.50 °C1013.80 hPa92.00 %2.30 °C 
01:45:003.80 °C1013.90 hPa92.00 %2.60 °C 
01:30:003.80 °C1013.70 hPa92.00 %2.60 °C 
01:15:004.10 °C1013.80 hPa92.00 %2.90 °C 
01:00:004.30 °C1013.50 hPa92.00 %3.10 °C 
00:45:004.40 °C1013.70 hPa92.00 %3.20 °C 
00:30:004.70 °C1013.40 hPa92.00 %3.50 °C 
00:15:005.00 °C1013.40 hPa92.00 %3.80 °C 
00:00:005.30 °C1013.40 hPa92.00 %4.10 °C 

Permanenter Link zu dieser Seite: Wetter im Erzgebirge am 03.10.2016
Performance-Info: Die Erstellung der Seite / Statistik(en) / Tabelle(n) erforderte 5 Datenbankserver-Abfrage(n) und dauerte 122 Millisekunden. (Dieser Messwert ist von der Gesamt-Auslastung des Servers abhängig.)
Erzgebirge - Wetter | Erzgebirge - Wetter (Mobilgeräte) | Komplette Klimadatenbank